createdAt,value
2023-03-05T00:02:06.918Z,84.94
2023-03-05T00:04:35.525Z,84.53
2023-03-05T00:07:02.423Z,85.00
2023-03-05T00:09:29.134Z,85.21
2023-03-05T00:11:55.961Z,84.95
2023-03-05T00:14:23.580Z,85.03
2023-03-05T00:16:50.226Z,85.18
2023-03-05T00:19:16.975Z,85.01
2023-03-05T00:21:45.027Z,84.99
2023-03-05T00:24:15.154Z,85.35
2023-03-05T00:26:42.526Z,85.65
2023-03-05T00:29:09.969Z,85.86
2023-03-05T00:31:38.035Z,85.71
2023-03-05T00:34:11.828Z,85.35
2023-03-05T00:36:43.110Z,85.52
2023-03-05T00:39:11.022Z,85.49
2023-03-05T00:41:38.712Z,85.28
2023-03-05T00:44:05.597Z,85.64
2023-03-05T00:46:33.116Z,85.14
2023-03-05T00:48:59.900Z,85.26
2023-03-05T00:51:26.872Z,85.58
2023-03-05T00:53:53.687Z,86.20
2023-03-05T00:56:21.274Z,86.34
2023-03-05T00:58:48.205Z,86.24
2023-03-05T01:01:16.338Z,86.53
2023-03-05T01:03:43.150Z,86.49
2023-03-05T01:06:13.671Z,86.01
2023-03-05T01:08:40.588Z,85.89
2023-03-05T01:11:08.808Z,86.54
2023-03-05T01:13:35.819Z,86.87
2023-03-05T01:16:03.263Z,87.21
2023-03-05T01:18:29.937Z,86.94
2023-03-05T01:20:56.745Z,86.81
2023-03-05T01:23:23.946Z,86.74
2023-03-05T01:25:53.772Z,86.02
2023-03-05T01:28:20.523Z,86.02
2023-03-05T01:30:47.769Z,86.38
2023-03-05T01:33:14.610Z,86.71
2023-03-05T01:35:41.935Z,87.19
2023-03-05T01:38:08.843Z,87.60
2023-03-05T01:40:35.543Z,87.76
2023-03-05T01:43:22.324Z,87.25
2023-03-05T01:45:52.776Z,87.86
2023-03-05T01:48:19.592Z,87.88
2023-03-05T01:50:48.705Z,88.14
2023-03-05T01:53:15.416Z,88.89
2023-03-05T01:55:42.233Z,89.70
2023-03-05T01:58:13.125Z,90.13
2023-03-05T02:00:48.593Z,90.33
2023-03-05T02:03:15.613Z,90.69
2023-03-05T02:05:44.710Z,90.91
2023-03-05T02:08:17.793Z,91.22
2023-03-05T02:10:47.337Z,91.46
2023-03-05T02:13:22.810Z,91.56
2023-03-05T02:15:50.877Z,91.59
2023-03-05T02:18:19.668Z,91.46
2023-03-05T02:20:51.189Z,91.57
2023-03-05T02:23:21.296Z,91.57
2023-03-05T02:25:48.598Z,91.59
2023-03-05T02:28:45.740Z,91.80
2023-03-05T02:31:18.184Z,91.51
2023-03-05T02:33:47.285Z,91.93
2023-03-05T02:36:14.207Z,92.26
2023-03-05T02:38:42.062Z,92.15
2023-03-05T02:41:09.124Z,92.73
2023-03-05T02:43:36.654Z,91.57
2023-03-05T02:46:04.394Z,91.87
2023-03-05T02:48:31.799Z,92.17
2023-03-05T02:50:58.614Z,91.46
2023-03-05T02:53:26.518Z,90.78
2023-03-05T02:55:53.253Z,90.44
2023-03-05T02:58:20.095Z,90.34
2023-03-05T03:00:49.714Z,89.81
2023-03-05T03:03:16.654Z,89.62
2023-03-05T03:05:43.410Z,89.31
2023-03-05T03:08:10.593Z,89.67
2023-03-05T03:10:38.149Z,89.53
2023-03-05T03:13:05.112Z,89.01
2023-03-05T03:15:31.854Z,89.45
2023-03-05T03:17:58.775Z,89.25
2023-03-05T03:20:25.577Z,88.69
2023-03-05T03:25:21.814Z,88.73
2023-03-05T03:27:49.030Z,89.33
2023-03-05T03:30:16.804Z,88.64
2023-03-05T03:32:44.118Z,88.62
2023-03-05T03:35:12.806Z,88.45
2023-03-05T03:37:40.391Z,88.83
2023-03-05T03:40:08.179Z,88.88
2023-03-05T03:42:35.162Z,89.08
2023-03-05T03:45:02.612Z,89.68
2023-03-05T03:47:30.596Z,89.50
2023-03-05T03:49:59.471Z,89.47
2023-03-05T03:52:26.781Z,89.31
2023-03-05T03:54:53.912Z,89.47
2023-03-05T03:57:21.057Z,89.23
2023-03-05T03:59:48.023Z,88.83
2023-03-05T04:02:14.718Z,89.05
2023-03-05T04:04:41.596Z,88.63
2023-03-05T04:07:08.440Z,87.88
2023-03-05T04:09:35.335Z,88.14
2023-03-05T04:12:02.777Z,88.63
2023-03-05T04:14:32.315Z,87.59
2023-03-05T04:16:59.279Z,88.41
2023-03-05T04:19:25.927Z,88.39
2023-03-05T04:21:53.728Z,88.77
2023-03-05T04:24:20.373Z,87.99
2023-03-05T04:26:47.063Z,88.93
2023-03-05T04:29:13.824Z,88.45
2023-03-05T04:31:40.578Z,88.08
2023-03-05T04:34:07.249Z,88.25
2023-03-05T04:36:34.149Z,88.24
2023-03-05T04:39:01.250Z,87.64
2023-03-05T04:41:28.336Z,87.55
2023-03-05T04:43:55.030Z,87.34
2023-03-05T04:46:22.058Z,87.58
2023-03-05T04:48:48.839Z,87.46
2023-03-05T04:51:16.189Z,87.11
2023-03-05T04:53:42.813Z,87.00
2023-03-05T04:56:09.517Z,87.42
2023-03-05T04:58:39.510Z,87.00
2023-03-05T05:01:07.479Z,86.67
2023-03-05T05:03:34.589Z,86.89
2023-03-05T05:06:01.988Z,87.09
2023-03-05T05:08:29.436Z,86.98
2023-03-05T05:10:57.486Z,86.77
2023-03-05T05:13:26.212Z,86.95
2023-03-05T05:15:52.854Z,86.96
2023-03-05T05:18:20.725Z,86.82
2023-03-05T05:20:48.361Z,86.79
2023-03-05T05:23:15.593Z,86.60
2023-03-05T05:25:43.510Z,86.56
2023-03-05T05:28:11.627Z,86.57
2023-03-05T05:30:39.196Z,86.64
2023-03-05T05:33:05.875Z,86.77
2023-03-05T05:35:33.650Z,86.88
2023-03-05T05:38:00.545Z,87.14
2023-03-05T05:40:27.354Z,87.14
2023-03-05T05:42:54.250Z,87.33
2023-03-05T05:45:21.004Z,87.78
2023-03-05T05:47:48.013Z,87.87
2023-03-05T05:50:15.129Z,87.68
2023-03-05T05:52:41.805Z,87.66
2023-03-05T05:55:09.272Z,87.76
2023-03-05T05:57:36.549Z,87.70
2023-03-05T06:00:06.979Z,87.86
2023-03-05T06:02:34.328Z,87.97
2023-03-05T06:05:01.074Z,87.77
2023-03-05T06:07:28.560Z,87.75
2023-03-05T06:09:55.233Z,87.12
2023-03-05T06:12:21.925Z,87.67
2023-03-05T06:14:48.644Z,87.51
2023-03-05T06:17:25.094Z,87.71
2023-03-05T06:19:56.842Z,86.16
2023-03-05T06:22:23.575Z,86.22
2023-03-05T06:24:50.517Z,85.90
2023-03-05T06:27:17.503Z,85.10
2023-03-05T06:29:44.317Z,85.25
2023-03-05T06:32:11.254Z,85.64
2023-03-05T06:34:38.100Z,85.39
2023-03-05T06:37:06.272Z,85.41
2023-03-05T06:39:33.671Z,83.71
2023-03-05T06:42:00.531Z,83.18
2023-03-05T06:44:27.534Z,82.49
2023-03-05T06:46:54.428Z,81.53
2023-03-05T06:49:21.209Z,80.12
2023-03-05T06:51:47.932Z,80.16
2023-03-05T06:54:16.742Z,80.33
2023-03-05T06:56:46.064Z,80.03
2023-03-05T06:59:15.445Z,79.47
2023-03-05T07:01:43.498Z,78.81
2023-03-05T07:04:12.443Z,77.76
2023-03-05T07:06:39.973Z,77.79
2023-03-05T07:09:08.240Z,77.27
2023-03-05T07:11:35.321Z,77.01
2023-03-05T07:14:03.150Z,76.39
2023-03-05T07:16:33.131Z,76.07
2023-03-05T07:19:05.657Z,75.46
2023-03-05T07:21:34.437Z,75.44
2023-03-05T07:24:02.980Z,76.21
2023-03-05T07:26:31.184Z,76.13
2023-03-05T07:28:58.068Z,76.08
2023-03-05T07:31:33.506Z,75.88
2023-03-05T07:34:02.674Z,75.95
2023-03-05T07:36:32.241Z,75.61
2023-03-05T07:38:59.197Z,75.29
2023-03-05T07:41:27.354Z,75.42
2023-03-05T07:43:55.345Z,75.31
2023-03-05T07:46:31.412Z,74.62
2023-03-05T07:48:59.864Z,74.24
2023-03-05T07:51:27.715Z,74.28
2023-03-05T07:53:57.629Z,74.15
2023-03-05T07:56:31.906Z,73.41
2023-03-05T07:59:00.363Z,73.68
2023-03-05T08:01:29.289Z,72.94
2023-03-05T08:03:56.275Z,72.79
2023-03-05T08:06:23.002Z,72.50
2023-03-05T08:08:49.785Z,72.17
2023-03-05T08:11:18.278Z,71.44
2023-03-05T08:13:45.768Z,70.67
2023-03-05T08:16:16.061Z,70.12
2023-03-05T08:18:43.022Z,69.29
2023-03-05T08:21:21.196Z,68.67
2023-03-05T08:23:48.887Z,67.74
2023-03-05T08:26:18.774Z,68.25
2023-03-05T08:28:45.724Z,67.62
2023-03-05T08:31:14.286Z,68.21
2023-03-05T08:33:41.912Z,67.78
2023-03-05T08:36:09.765Z,67.22
2023-03-05T08:38:36.756Z,67.83
2023-03-05T08:41:04.274Z,68.42
2023-03-05T08:43:33.988Z,67.85
2023-03-05T08:46:01.753Z,67.58
2023-03-05T08:48:31.918Z,67.91
2023-03-05T08:51:05.309Z,67.76
2023-03-05T08:53:32.057Z,68.10
2023-03-05T08:56:02.088Z,67.46
2023-03-05T08:58:28.983Z,67.67
2023-03-05T09:00:59.094Z,66.26
2023-03-05T09:03:26.185Z,67.01
2023-03-05T09:05:54.035Z,67.43
2023-03-05T09:08:21.389Z,66.21
2023-03-05T09:10:48.249Z,65.97
2023-03-05T09:13:15.045Z,65.95
2023-03-05T09:15:41.833Z,66.09
2023-03-05T09:18:09.389Z,66.46
2023-03-05T09:20:37.054Z,65.87
2023-03-05T09:23:05.865Z,65.50
2023-03-05T09:25:32.957Z,65.38
2023-03-05T09:28:00.918Z,64.59
2023-03-05T09:30:27.746Z,65.10
2023-03-05T09:32:55.010Z,64.43
2023-03-05T09:35:21.779Z,64.39
2023-03-05T09:37:48.700Z,63.42
2023-03-05T09:40:18.148Z,63.15
2023-03-05T09:42:47.514Z,63.70
2023-03-05T09:45:54.193Z,62.56
2023-03-05T09:48:54.058Z,62.31
2023-03-05T09:51:29.493Z,61.86
2023-03-05T09:54:05.672Z,60.23
2023-03-05T09:56:39.956Z,61.11
2023-03-05T09:59:28.736Z,60.69
2023-03-05T10:02:12.653Z,59.54
2023-03-05T10:07:26.018Z,59.88
2023-03-05T10:09:53.982Z,60.02
2023-03-05T10:12:28.066Z,60.12
2023-03-05T10:14:55.693Z,60.07
2023-03-05T10:17:51.165Z,60.44
2023-03-05T10:20:45.931Z,60.56
2023-03-05T10:23:33.788Z,60.44
2023-03-05T10:26:22.539Z,59.55
2023-03-05T10:28:52.945Z,59.88
2023-03-05T10:31:25.748Z,60.84
2023-03-05T10:33:52.985Z,60.79
2023-03-05T10:36:28.401Z,60.51
2023-03-05T10:39:07.014Z,60.20
2023-03-05T10:41:53.918Z,60.86
2023-03-05T10:44:46.857Z,60.38
2023-03-05T10:47:44.203Z,60.77
2023-03-05T10:50:24.287Z,60.76
2023-03-05T10:52:52.952Z,61.03
2023-03-05T10:55:22.091Z,61.71
2023-03-05T10:57:50.487Z,62.80
2023-03-05T11:00:28.315Z,62.34
2023-03-05T11:03:03.103Z,62.38
2023-03-05T11:05:39.211Z,62.63
2023-03-05T11:08:27.610Z,62.59
2023-03-05T11:11:09.761Z,64.25
2023-03-05T11:13:54.035Z,63.90
2023-03-05T11:16:27.927Z,63.84
2023-03-05T11:19:11.813Z,64.01
2023-03-05T11:21:38.631Z,63.79
2023-03-05T11:24:19.881Z,64.05
2023-03-05T11:26:54.151Z,64.17
2023-03-05T11:29:29.388Z,63.91
2023-03-05T11:31:57.156Z,63.54
2023-03-05T11:34:32.743Z,64.63
2023-03-05T11:37:08.327Z,64.03
2023-03-05T11:39:38.477Z,63.79
2023-03-05T11:42:13.249Z,63.94
2023-03-05T11:44:53.990Z,63.40
2023-03-05T11:47:36.103Z,61.20
2023-03-05T11:50:14.955Z,61.75
2023-03-05T11:52:54.030Z,61.84
2023-03-05T11:55:46.160Z,62.47
2023-03-05T11:58:32.699Z,61.79
2023-03-05T12:01:01.450Z,62.96
2023-03-05T12:03:35.343Z,63.57
2023-03-05T12:06:18.091Z,63.34
2023-03-05T12:08:49.981Z,63.61
2023-03-05T12:11:26.596Z,63.62
2023-03-05T12:13:57.942Z,63.19
2023-03-05T12:16:51.074Z,63.40
2023-03-05T12:19:38.920Z,63.28
2023-03-05T12:22:15.331Z,64.34
2023-03-05T12:24:42.117Z,63.34
2023-03-05T12:27:12.197Z,62.77
2023-03-05T12:32:35.416Z,61.97
2023-03-05T12:35:04.628Z,61.50
2023-03-05T12:37:34.524Z,61.80
2023-03-05T12:40:28.460Z,61.20
2023-03-05T12:42:57.585Z,60.01
2023-03-05T12:45:28.425Z,60.49
2023-03-05T12:47:55.095Z,60.44
2023-03-05T12:50:28.108Z,60.69
2023-03-05T12:52:57.218Z,60.63
2023-03-05T12:55:48.275Z,59.46
2023-03-05T12:58:42.740Z,58.12
2023-03-05T13:01:12.501Z,58.19
2023-03-05T13:03:54.104Z,58.03
2023-03-05T13:06:47.426Z,58.36
2023-03-05T13:09:40.551Z,58.66
2023-03-05T13:12:14.049Z,58.61
2023-03-05T13:14:49.026Z,59.38
2023-03-05T13:17:41.269Z,59.31
2023-03-05T13:20:29.324Z,59.13
2023-03-05T13:23:08.258Z,59.42
2023-03-05T13:25:35.132Z,59.15
2023-03-05T13:28:11.310Z,57.57
2023-03-05T13:30:38.897Z,58.37
2023-03-05T13:33:06.178Z,59.24
2023-03-05T13:35:33.893Z,59.26
2023-03-05T13:38:02.274Z,59.05
2023-03-05T13:40:31.866Z,59.57
2023-03-05T13:43:17.980Z,60.57
2023-03-05T13:45:54.270Z,60.68
2023-03-05T13:48:21.909Z,60.60
2023-03-05T13:50:54.159Z,60.64
2023-03-05T13:53:27.475Z,60.73
2023-03-05T13:56:01.429Z,60.84
2023-03-05T13:58:54.065Z,60.68
2023-03-05T14:01:34.297Z,60.75
2023-03-05T14:04:18.136Z,59.95
2023-03-05T14:06:54.048Z,60.62
2023-03-05T14:09:26.931Z,60.23
2023-03-05T14:12:02.548Z,60.34
2023-03-05T14:14:31.781Z,60.91
2023-03-05T14:17:27.697Z,60.60
2023-03-05T14:20:10.524Z,60.12
2023-03-05T14:22:39.364Z,59.88
2023-03-05T14:25:24.496Z,59.92
2023-03-05T14:30:22.221Z,59.39
2023-03-05T14:35:24.551Z,57.95
2023-03-05T14:37:54.060Z,58.16
2023-03-05T14:40:33.118Z,58.63
2023-03-05T14:43:02.007Z,57.59
2023-03-05T14:45:30.779Z,57.13
2023-03-05T14:48:00.397Z,57.22
2023-03-05T14:50:33.943Z,57.28
2023-03-05T14:53:16.680Z,56.56
2023-03-05T14:55:43.948Z,56.69
2023-03-05T14:58:16.756Z,55.97
2023-03-05T15:00:43.781Z,55.51
2023-03-05T15:03:15.229Z,55.18
2023-03-05T15:05:43.811Z,55.35
2023-03-05T15:08:17.366Z,54.83
2023-03-05T15:10:44.279Z,54.96
2023-03-05T15:13:12.807Z,55.92
2023-03-05T15:15:40.790Z,55.82
2023-03-05T15:18:11.214Z,56.98
2023-03-05T15:20:39.842Z,57.27
2023-03-05T15:23:07.033Z,56.65
2023-03-05T15:25:34.005Z,56.87
2023-03-05T15:28:00.734Z,57.04
2023-03-05T15:30:35.304Z,56.58
2023-03-05T15:33:05.436Z,56.92
2023-03-05T15:35:32.941Z,56.59
2023-03-05T15:37:59.725Z,56.80
2023-03-05T15:40:28.002Z,57.52
2023-03-05T15:42:55.922Z,56.46
2023-03-05T15:45:22.851Z,57.02
2023-03-05T15:47:51.742Z,56.53
2023-03-05T15:50:19.982Z,55.82
2023-03-05T15:52:47.196Z,55.73
2023-03-05T15:55:18.652Z,55.74
2023-03-05T15:57:48.646Z,56.05
2023-03-05T16:00:17.755Z,56.12
2023-03-05T16:02:45.366Z,56.84
2023-03-05T16:05:12.120Z,57.60
2023-03-05T16:07:41.965Z,57.00
2023-03-05T16:10:13.174Z,57.91
2023-03-05T16:12:42.245Z,57.61
2023-03-05T16:15:15.422Z,57.54
2023-03-05T16:17:45.114Z,57.16
2023-03-05T16:20:15.331Z,58.09
2023-03-05T16:22:42.494Z,58.01
2023-03-05T16:25:09.468Z,57.73
2023-03-05T16:27:36.709Z,58.11
2023-03-05T16:30:05.241Z,58.19
2023-03-05T16:32:33.939Z,58.53
2023-03-05T16:35:04.170Z,58.73
2023-03-05T16:37:31.521Z,59.20
2023-03-05T16:40:00.054Z,58.76
2023-03-05T16:42:27.041Z,59.16
2023-03-05T16:44:54.989Z,59.40
2023-03-05T16:47:21.779Z,59.45
2023-03-05T16:49:48.583Z,60.14
2023-03-05T16:52:19.819Z,59.76
2023-03-05T16:54:47.723Z,60.39
2023-03-05T16:57:14.537Z,60.22
2023-03-05T16:59:41.749Z,60.48
2023-03-05T17:02:08.805Z,60.38
2023-03-05T17:04:36.072Z,61.00
2023-03-05T17:07:04.296Z,60.10
2023-03-05T17:09:31.788Z,60.57
2023-03-05T17:11:58.825Z,61.33
2023-03-05T17:14:25.634Z,60.33
2023-03-05T17:19:19.442Z,60.86
2023-03-05T17:21:46.581Z,60.96
2023-03-05T17:24:13.394Z,60.90
2023-03-05T17:26:40.926Z,61.36
2023-03-05T17:29:07.646Z,61.14
2023-03-05T17:31:34.460Z,61.64
2023-03-05T17:34:02.304Z,61.94
2023-03-05T17:36:29.181Z,62.50
2023-03-05T17:38:56.203Z,62.70
2023-03-05T17:41:24.591Z,62.11
2023-03-05T17:43:51.846Z,62.99
2023-03-05T17:46:18.598Z,62.70
2023-03-05T17:48:45.374Z,63.22
2023-03-05T17:51:14.177Z,63.75
2023-03-05T17:53:40.922Z,63.81
2023-03-05T17:56:09.764Z,64.64
2023-03-05T17:58:36.987Z,63.13
2023-03-05T18:01:04.550Z,64.17
2023-03-05T18:03:31.244Z,63.54
2023-03-05T18:05:57.954Z,64.70
2023-03-05T18:08:24.702Z,63.15
2023-03-05T18:10:51.597Z,64.34
2023-03-05T18:13:18.297Z,63.96
2023-03-05T18:15:47.723Z,64.11
2023-03-05T18:18:16.078Z,65.24
2023-03-05T18:20:42.978Z,65.77
2023-03-05T18:23:10.660Z,66.17
2023-03-05T18:25:37.389Z,66.23
2023-03-05T18:28:08.667Z,66.67
2023-03-05T18:30:35.895Z,66.34
2023-03-05T18:33:03.119Z,66.98
2023-03-05T18:35:30.721Z,67.43
2023-03-05T18:37:57.902Z,66.61
2023-03-05T18:40:26.814Z,66.50
2023-03-05T18:42:54.085Z,66.65
2023-03-05T18:45:22.675Z,67.37
2023-03-05T18:50:18.815Z,66.83
2023-03-05T18:52:45.955Z,67.01
2023-03-05T18:55:18.076Z,67.60
2023-03-05T18:57:44.923Z,67.54
2023-03-05T19:00:17.865Z,67.22
2023-03-05T19:02:44.577Z,67.47
2023-03-05T19:05:13.691Z,67.25
2023-03-05T19:07:41.338Z,67.05
2023-03-05T19:10:13.894Z,66.72
2023-03-05T19:12:51.163Z,67.44
2023-03-05T19:15:19.253Z,67.70
2023-03-05T19:17:46.024Z,67.92
2023-03-05T19:20:14.629Z,67.55
2023-03-05T19:22:41.706Z,67.61
2023-03-05T19:25:09.965Z,67.71
2023-03-05T19:27:37.870Z,67.90
2023-03-05T19:30:07.766Z,68.79
2023-03-05T19:32:34.937Z,67.29
2023-03-05T19:35:02.467Z,68.00
2023-03-05T19:37:30.553Z,67.65
2023-03-05T19:39:57.208Z,67.83
2023-03-05T19:42:24.676Z,67.90
2023-03-05T19:47:19.534Z,68.37
2023-03-05T19:49:46.385Z,68.79
2023-03-05T19:52:14.369Z,68.33
2023-03-05T19:54:42.080Z,68.58
2023-03-05T19:57:09.777Z,68.72
2023-03-05T19:59:36.716Z,69.21
2023-03-05T20:02:04.740Z,68.81
2023-03-05T20:04:35.024Z,69.58
2023-03-05T20:07:04.081Z,69.83
2023-03-05T20:09:31.043Z,69.94
2023-03-05T20:12:03.058Z,70.22
2023-03-05T20:14:29.853Z,70.64
2023-03-05T20:16:56.665Z,70.30
2023-03-05T20:19:23.353Z,70.20
2023-03-05T20:21:50.017Z,70.08
2023-03-05T20:24:18.768Z,70.12
2023-03-05T20:26:47.466Z,70.77
2023-03-05T20:29:17.777Z,70.29
2023-03-05T20:31:45.578Z,70.45
2023-03-05T20:34:15.607Z,70.94
2023-03-05T20:36:43.258Z,71.31
2023-03-05T20:39:11.066Z,70.32
2023-03-05T20:41:39.309Z,70.93
2023-03-05T20:44:07.257Z,70.95
2023-03-05T20:46:36.720Z,70.67
2023-03-05T20:49:04.848Z,70.96
2023-03-05T20:51:38.607Z,70.94
2023-03-05T20:54:08.575Z,70.72
2023-03-05T20:56:37.170Z,70.25
2023-03-05T20:59:09.036Z,70.37
2023-03-05T21:01:39.063Z,70.98
2023-03-05T21:04:07.340Z,71.34
2023-03-05T21:06:34.693Z,70.41
2023-03-05T21:09:02.141Z,70.27
2023-03-05T21:11:29.009Z,69.39
2023-03-05T21:13:55.900Z,69.09
2023-03-05T21:16:25.409Z,69.60
2023-03-05T21:21:19.583Z,69.41
2023-03-05T21:23:48.287Z,69.92
2023-03-05T21:26:15.472Z,69.68
2023-03-05T21:28:42.661Z,70.13
2023-03-05T21:31:14.668Z,69.89
2023-03-05T21:33:42.305Z,70.43
2023-03-05T21:36:09.493Z,69.93
2023-03-05T21:38:36.799Z,70.02
2023-03-05T21:41:04.480Z,69.18
2023-03-05T21:43:32.700Z,69.94
2023-03-05T21:46:01.505Z,70.34
2023-03-05T21:48:28.467Z,68.56
2023-03-05T21:50:55.544Z,68.02
2023-03-05T21:53:23.152Z,67.52
2023-03-05T21:55:54.227Z,67.75
2023-03-05T21:58:20.946Z,67.78
2023-03-05T22:00:47.634Z,67.99
2023-03-05T22:03:14.289Z,67.59
2023-03-05T22:05:43.796Z,67.73
2023-03-05T22:08:10.571Z,67.81
2023-03-05T22:10:37.332Z,68.31
2023-03-05T22:13:10.744Z,68.48
2023-03-05T22:15:49.969Z,68.91
2023-03-05T22:18:22.405Z,69.13
2023-03-05T22:20:49.888Z,69.80
2023-03-05T22:23:18.177Z,69.30
2023-03-05T22:25:45.020Z,70.26
2023-03-05T22:28:13.055Z,69.73
2023-03-05T22:30:45.199Z,70.35
2023-03-05T22:33:12.558Z,70.21
2023-03-05T22:35:42.953Z,70.53
2023-03-05T22:38:11.435Z,70.84
2023-03-05T22:40:43.051Z,70.16
2023-03-05T22:43:10.042Z,70.36
2023-03-05T22:45:37.062Z,71.12
2023-03-05T22:48:04.076Z,71.66
2023-03-05T22:50:30.813Z,71.47
2023-03-05T22:52:58.680Z,71.47
2023-03-05T22:55:25.651Z,71.34
2023-03-05T23:00:26.291Z,71.56
2023-03-05T23:02:54.295Z,72.17
2023-03-05T23:05:21.828Z,71.96
2023-03-05T23:07:49.409Z,71.95
2023-03-05T23:10:19.773Z,71.92
2023-03-05T23:12:50.274Z,72.27
2023-03-05T23:15:23.306Z,71.88
2023-03-05T23:17:50.185Z,71.76
2023-03-05T23:20:21.110Z,72.31
2023-03-05T23:22:54.728Z,72.49
2023-03-05T23:25:23.310Z,72.67
2023-03-05T23:27:50.739Z,72.60
2023-03-05T23:30:18.210Z,72.19
2023-03-05T23:32:54.290Z,72.29
2023-03-05T23:35:27.612Z,72.69
2023-03-05T23:37:56.040Z,72.38
2023-03-05T23:40:25.880Z,72.14
2023-03-05T23:42:54.272Z,72.40
2023-03-05T23:45:22.285Z,70.90
2023-03-05T23:47:50.111Z,71.40
2023-03-05T23:50:22.407Z,71.62
2023-03-05T23:52:54.332Z,71.66
2023-03-05T23:55:30.633Z,72.14
2023-03-05T23:57:57.332Z,71.89
